Latest Weather Observations for Hamilton Island

IDQ60801

Issued at 7:22 pm EST Friday 18 January 2019 (issued every 10 minutes, with the page automatically refreshed every 10 minutes)

About weather observations | Map of weather stations | Latest weather observations for QLD | Other Formats
Station Details ID: 033106 Name: HAMILTON ISLAND AIRPORT Lat: -20.37 Lon: 148.95 Height: 58.66 m
Data from the previous 72 hours. | See also: Recent months at Hamilton Island
Date/Time
EST
Temp
°C
App
Temp
°C
Dew
Point
°C
Rel
Hum
%
Delta-T
°C
Wind Press
QNH
hPa
Press
MSL
hPa
Rain since
9am
mm
Dir  Spd
km/h
Gust
km/h
Spd
kts
Gust
kts
18/07:00pm 26.4 23.7 21.2 73 3.5 E 37 43 20 23 1012.8 1012.4 0.0
18/06:30pm 26.6 23.6 21.4 73 3.5 E 39 43 21 23 1012.5 1012.1 0.0
18/06:00pm 26.8 24.3 21.6 73 3.5 E 37 43 20 23 1012.3 1011.9 0.0
18/05:30pm 26.9 24.8 22.3 76 3.1 E 37 43 20 23 1011.8 1011.4 0.0
18/05:00pm 26.9 24.9 22.5 77 3.0 E 37 43 20 23 1011.3 1010.9 0.0
18/04:30pm 27.5 26.2 22.4 73 3.5 E 33 39 18 21 1011.4 1011.0 0.0
18/04:00pm 27.8 26.5 21.3 67 4.3 E 30 33 16 18 1011.6 1011.2 0.0
18/03:30pm 27.8 26.5 22.1 71 3.8 E 32 37 17 20 1011.7 1011.3 0.0
18/03:00pm 27.8 26.7 21.8 70 4.0 E 30 33 16 18 1011.8 1011.4 0.0
18/02:30pm 27.9 26.1 21.2 67 4.5 E 32 35 17 19 1011.8 1011.4 0.0
18/02:00pm 28.0 26.9 22.5 72 3.7 E 32 37 17 20 1012.0 1011.6 0.0
18/01:30pm 27.9 26.2 21.7 69 4.2 E 33 39 18 21 1012.0 1011.6 0.0
18/01:00pm 28.5 27.8 22.5 70 4.1 E 30 33 16 18 1012.3 1011.9 0.0
18/12:30pm 28.5 27.3 22.3 69 4.2 E 32 35 17 19 1012.3 1011.9 0.0
18/12:00pm 28.0 26.6 22.2 70 3.9 E 33 37 18 20 1012.5 1012.1 0.0
18/11:30am 28.1 26.8 22.1 70 4.0 E 32 37 17 20 1012.7 1012.3 0.0
18/11:00am 27.9 26.8 22.4 72 3.7 E 32 35 17 19 1012.8 1012.4 0.0
18/10:30am 27.7 26.3 22.2 72 3.7 E 33 37 18 20 1012.7 1012.3 0.0
18/10:00am 27.4 26.1 22.1 73 3.6 E 32 37 17 20 1012.8 1012.4 0.0
18/09:30am 27.3 26.3 22.7 76 3.1 E 32 37 17 20 1012.8 1012.4 0.0
18/09:00am 27.2 26.0 22.2 74 3.4 E 32 37 17 20 1012.7 1012.3 -
18/08:30am 28.0 27.4 22.7 73 3.6 E 30 33 16 18 1012.5 1012.1 0.0
18/08:00am 27.5 26.2 22.4 73 3.5 E 33 39 18 21 1012.3 1011.9 0.0
18/07:30am 27.2 25.6 21.9 73 3.6 E 33 43 18 23 1012.2 1011.8 0.0
18/07:00am 26.4 24.9 22.0 77 3.0 E 33 41 18 22 1011.9 1011.5 0.0
18/06:30am 26.4 24.1 22.0 77 3.0 E 37 43 20 23 1011.3 1010.9 0.0
18/06:00am 26.2 24.3 22.1 78 2.8 E 35 41 19 22 1010.9 1010.5 0.0
18/05:30am 25.9 25.1 23.4 86 1.7 E 33 39 18 21 1010.6 1010.2 0.0
18/05:00am 26.2 25.1 22.5 80 2.5 E 32 39 17 21 1010.3 1009.9 0.0
18/04:30am 26.1 24.9 22.2 79 2.6 E 32 41 17 22 1009.9 1009.5 0.0
18/04:00am 26.1 25.3 22.4 80 2.5 E 30 37 16 20 1009.9 1009.5 0.0
18/03:30am 26.2 25.3 22.1 78 2.8 ENE 30 41 16 22 1009.8 1009.4 0.0
18/03:00am 26.2 24.9 22.1 78 2.8 ENE 32 39 17 21 1009.7 1009.3 0.0
18/02:30am 25.9 25.3 23.4 86 1.7 E 32 37 17 20 1009.9 1009.5 0.0
18/02:27am 25.9 25.2 23.2 85 1.8 E 32 37 17 20 1009.9 1009.5 0.0
18/02:16am 25.9 25.2 23.6 87 1.6 E 33 39 18 21 1010.2 1009.8 0.0
18/02:00am 25.8 25.0 23.1 85 1.8 E 32 35 17 19 1010.4 1010.0 0.0
18/01:30am 25.7 25.5 23.4 87 1.6 E 30 33 16 18 1010.7 1010.3 0.0
18/01:00am 26.0 24.9 22.9 83 2.1 E 33 39 18 21 1010.8 1010.4 0.0
18/12:30am 26.2 25.1 22.9 82 2.2 E 33 39 18 21 1011.1 1010.7 0.0
18/12:00am 26.2 25.0 22.7 81 2.4 E 33 37 18 20 1011.5 1011.1 0.0
 
Date/Time
EST
Temp
°C
App
Temp
°C
Dew
Point
°C
Rel
Hum
%
Delta-T
°C
Wind Press
QNH
hPa
Press
MSL
hPa
Rain since
9am
mm
Dir  Spd
km/h
Gust
km/h
Spd
kts
Gust
kts
17/11:30pm 26.3 25.1 22.6 80 2.5 E 33 39 18 21 1011.7 1011.3 0.0
17/11:00pm 26.3 24.5 22.2 78 2.8 E 35 39 19 21 1012.0 1011.6 0.0
17/10:30pm 26.4 24.7 22.5 79 2.6 E 35 41 19 22 1012.2 1011.8 0.0
17/10:00pm 26.4 25.5 23.1 82 2.2 E 33 39 18 21 1012.2 1011.8 0.0
17/09:30pm 26.4 24.0 21.8 76 3.1 E 37 43 20 23 1012.0 1011.6 0.0
17/09:00pm 26.5 25.0 22.1 77 3.0 E 33 37 18 20 1011.8 1011.4 0.0
17/08:30pm 26.4 25.1 22.5 79 2.6 ESE 33 39 18 21 1011.7 1011.3 0.0
17/08:00pm 26.5 25.3 22.3 78 2.8 E 32 37 17 20 1011.4 1011.0 0.0
17/07:30pm 26.4 25.3 21.8 76 3.1 ESE 30 35 16 19 1011.2 1010.8 0.0
17/07:00pm 26.4 25.3 21.8 76 3.1 ESE 30 33 16 18 1011.0 1010.6 0.0
17/06:30pm 26.7 25.3 21.9 75 3.2 ESE 32 39 17 21 1010.6 1010.2 0.0
17/06:00pm 26.7 25.5 21.5 73 3.5 ESE 30 37 16 20 1010.3 1009.9 0.0
17/05:30pm 27.3 26.1 21.6 71 3.8 ESE 30 35 16 19 1010.1 1009.7 0.0
17/05:00pm 27.5 26.3 21.5 70 4.0 ESE 30 33 16 18 1009.8 1009.4 0.0
17/04:30pm 27.7 26.8 21.5 69 4.1 ESE 28 32 15 17 1009.7 1009.3 0.0
17/04:00pm 28.1 27.2 21.4 67 4.5 ESE 28 30 15 16 1009.7 1009.3 0.0
17/03:30pm 27.9 27.1 21.7 69 4.2 E 28 32 15 17 1009.9 1009.5 0.0
17/03:00pm 27.9 27.0 22.2 71 3.9 E 30 33 16 18 1010.1 1009.7 0.0
17/02:30pm 28.4 27.6 21.7 67 4.5 E 28 32 15 17 1010.4 1010.0 0.0
17/02:00pm 28.3 28.0 21.8 68 4.4 E 26 30 14 16 1010.7 1010.3 0.0
17/01:30pm 28.5 28.6 22.5 70 4.1 E 26 30 14 16 1011.0 1010.6 0.0
17/01:00pm 28.5 28.4 22.3 69 4.2 E 26 30 14 16 1011.3 1010.9 0.0
17/12:30pm 28.0 27.5 21.5 67 4.3 E 26 30 14 16 1011.5 1011.1 0.0
17/12:00pm 28.4 28.4 21.7 67 4.5 E 24 26 13 14 1011.7 1011.3 0.0
17/11:30am 28.9 29.8 22.6 69 4.3 ESE 22 26 12 14 1011.9 1011.5 0.0
17/11:00am 28.5 28.8 21.5 66 4.7 E 22 26 12 14 1012.0 1011.6 0.0
17/10:30am 28.3 28.6 21.6 67 4.5 E 22 24 12 13 1012.1 1011.7 0.0
17/10:00am 28.2 28.1 21.5 67 4.5 ESE 24 28 13 15 1012.1 1011.7 0.0
17/09:30am 27.6 26.4 20.9 67 4.4 ESE 28 32 15 17 1012.1 1011.7 0.0
17/09:00am 28.5 29.3 22.5 70 4.1 ESE 22 28 12 15 1012.1 1011.7 0.0
17/08:30am 27.4 26.4 20.5 66 4.5 ESE 26 32 14 17 1012.1 1011.7 0.0
17/08:00am 26.7 26.1 20.5 69 4.1 ESE 24 30 13 16 1011.9 1011.5 0.0
17/07:30am 27.2 26.8 21.0 69 4.1 E 24 32 13 17 1011.8 1011.4 0.0
17/07:00am 26.7 25.9 20.8 70 3.9 E 26 30 14 16 1011.7 1011.3 0.0
17/06:30am 26.3 25.7 20.6 71 3.7 E 24 30 13 16 1011.5 1011.1 0.0
17/06:00am 25.6 25.3 21.1 76 3.0 E 24 28 13 15 1011.1 1010.7 0.0
17/05:30am 25.4 24.8 20.4 74 3.3 ESE 24 28 13 15 1010.6 1010.2 0.0
17/05:00am 25.3 25.1 21.2 78 2.7 ESE 24 30 13 16 1010.2 1009.8 0.0
17/04:30am 25.3 24.9 21.0 77 2.8 ESE 24 30 13 16 1010.2 1009.8 0.0
17/04:00am 25.2 25.1 20.7 76 3.0 ESE 22 30 12 16 1010.0 1009.6 0.0
17/03:30am 25.1 24.9 20.6 76 2.9 ESE 22 26 12 14 1010.2 1009.8 0.0
17/03:00am 25.3 25.6 20.8 76 3.0 ESE 20 26 11 14 1010.3 1009.9 0.0
17/02:30am 25.3 25.1 20.5 75 3.1 E 22 30 12 16 1010.4 1010.0 0.0
17/02:00am 25.4 24.4 20.4 74 3.3 ESE 26 30 14 16 1010.6 1010.2 0.0
17/01:30am 25.5 24.4 21.0 76 3.0 ESE 28 35 15 19 1010.6 1010.2 0.0
17/01:00am 25.7 24.8 20.7 74 3.3 ESE 26 33 14 18 1010.8 1010.4 0.0
17/12:30am 25.7 24.4 20.7 74 3.3 ESE 28 32 15 17 1011.2 1010.8 0.0
17/12:00am 25.8 23.8 19.9 70 3.8 E 30 35 16 19 1011.5 1011.1 0.0
 
Date/Time
EST
Temp
°C
App
Temp
°C
Dew
Point
°C
Rel
Hum
%
Delta-T
°C
Wind Press
QNH
hPa
Press
MSL
hPa
Rain since
9am
mm
Dir  Spd
km/h
Gust
km/h
Spd
kts
Gust
kts
16/11:30pm 25.8 22.8 20.6 73 3.4 E 37 41 20 22 1011.7 1011.3 0.0
16/11:00pm 25.9 23.6 21.3 76 3.1 E 35 43 19 23 1011.8 1011.4 0.0
16/10:30pm 26.0 23.4 21.4 76 3.1 E 37 43 20 23 1011.7 1011.3 0.0
16/10:00pm 26.1 23.2 21.5 76 3.1 E 39 46 21 25 1011.6 1011.2 0.0
16/09:30pm 26.1 23.8 22.0 78 2.7 E 37 41 20 22 1011.7 1011.3 0.0
16/09:00pm 26.1 24.2 22.0 78 2.8 E 35 41 19 22 1011.5 1011.1 0.0
16/08:30pm 26.1 24.3 22.2 79 2.6 E 35 41 19 22 1011.3 1010.9 0.0
16/08:00pm 26.1 24.9 22.2 79 2.6 E 32 39 17 21 1011.1 1010.7 0.0
16/07:30pm 26.1 24.2 22.0 78 2.7 ESE 35 39 19 21 1010.9 1010.5 0.0
16/07:00pm 26.1 24.2 22.0 78 2.8 ESE 35 43 19 23 1010.8 1010.4 0.0
16/06:30pm 26.3 24.2 21.7 76 3.1 ESE 35 39 19 21 1010.5 1010.1 0.0
16/06:00pm 26.7 25.3 22.3 77 3.0 ESE 33 41 18 22 1010.1 1009.7 0.0
16/05:30pm 27.0 24.9 21.7 73 3.5 ESE 35 41 19 22 1009.9 1009.5 0.0
16/05:00pm 27.0 26.2 22.4 76 3.1 ESE 30 35 16 19 1009.7 1009.3 0.0
16/04:30pm 26.7 24.9 21.5 73 3.5 ESE 33 37 18 20 1009.5 1009.1 0.0
16/04:00pm 27.3 26.5 22.3 74 3.4 ESE 30 35 16 19 1009.6 1009.2 0.0
16/03:30pm 28.2 27.7 22.2 70 4.1 ESE 28 32 15 17 1009.6 1009.2 0.0
16/03:00pm 28.3 27.2 21.8 68 4.4 ESE 30 33 16 18 1009.7 1009.3 0.0
16/02:30pm 28.5 28.1 22.3 69 4.2 ESE 28 32 15 17 1010.0 1009.6 0.0
16/02:00pm 28.4 28.0 22.4 70 4.1 ESE 28 35 15 19 1010.4 1010.0 0.0
16/01:30pm 28.8 28.5 22.5 68 4.3 SE 28 32 15 17 1010.6 1010.2 0.0
16/01:00pm 28.3 27.5 21.6 67 4.5 SE 28 32 15 17 1010.8 1010.4 0.0
16/12:30pm 28.6 28.4 22.1 68 4.4 ESE 26 30 14 16 1011.2 1010.8 0.0
16/12:00pm 27.8 27.6 22.1 71 3.8 ESE 26 30 14 16 1011.6 1011.2 0.0
16/11:30am 28.7 28.7 22.4 68 4.3 ESE 26 30 14 16 1012.0 1011.6 0.0
16/11:00am 28.5 28.3 22.0 68 4.4 ESE 26 32 14 17 1012.3 1011.9 0.0
16/10:30am 28.4 28.1 21.9 68 4.4 ESE 26 32 14 17 1012.5 1012.1 0.0
16/10:00am 28.3 27.8 22.1 69 4.2 ESE 28 32 15 17 1012.6 1012.2 0.0
16/09:30am 28.0 27.3 21.8 69 4.2 ESE 28 32 15 17 1012.5 1012.1 0.0
16/09:00am 27.7 26.5 21.5 69 4.1 ESE 30 33 16 18 1012.5 1012.1 0.2
16/08:30am 27.4 26.9 21.4 70 4.0 ESE 26 32 14 17 1012.4 1012.0 0.2
16/08:00am 27.5 26.9 22.0 72 3.7 ESE 28 35 15 19 1012.4 1012.0 0.2
16/07:30am 26.8 25.6 21.6 73 3.5 ESE 30 35 16 19 1012.2 1011.8 0.2
16/07:00am 26.7 25.7 21.2 72 3.7 ESE 28 33 15 18 1012.1 1011.7 0.2
16/06:30am 26.2 25.5 21.8 77 2.9 ESE 28 37 15 20 1012.0 1011.6 0.2
16/06:00am 25.4 24.4 21.9 81 2.3 ESE 30 33 16 18 1011.7 1011.3 0.2
16/05:30am 25.4 23.9 21.7 80 2.5 ESE 32 39 17 21 1011.2 1010.8 0.2
16/05:00am 25.3 23.8 21.8 81 2.3 ESE 32 37 17 20 1010.7 1010.3 0.2
16/04:30am 25.4 25.5 22.5 84 2.0 ESE 26 32 14 17 1010.5 1010.1 0.2
16/04:00am 25.2 23.9 21.3 79 2.6 ESE 30 39 16 21 1010.2 1009.8 0.2
16/03:30am 25.3 24.2 21.8 81 2.3 ESE 30 35 16 19 1010.2 1009.8 0.2
16/03:00am 25.4 23.8 21.5 79 2.6 ESE 32 35 17 19 1010.2 1009.8 0.2
16/02:30am 25.5 24.0 21.8 80 2.5 ESE 32 39 17 21 1010.4 1010.0 0.2
16/02:00am 25.5 23.6 21.4 78 2.7 ESE 33 41 18 22 1010.8 1010.4 0.2
16/01:30am 25.5 23.4 21.6 79 2.6 ESE 35 43 19 23 1010.9 1010.5 0.2
16/01:00am 25.6 23.6 21.9 80 2.5 ESE 35 44 19 24 1011.1 1010.7 0.2
16/12:30am 25.7 23.8 22.0 80 2.5 ESE 35 43 19 23 1011.3 1010.9 0.2
16/12:00am 25.6 23.4 22.1 81 2.3 ESE 37 44 20 24 1011.6 1011.2 0.2
 
Date/Time
EST
Temp
°C
App
Temp
°C
Dew
Point
°C
Rel
Hum
%
Delta-T
°C
Wind Press
QNH
hPa
Press
MSL
hPa
Rain since
9am
mm
Dir  Spd
km/h
Gust
km/h
Spd
kts
Gust
kts
15/11:30pm 25.8 24.2 21.9 79 2.6 ESE 33 41 18 22 1012.1 1011.7 0.2
15/11:00pm 25.8 23.4 21.9 79 2.6 ESE 37 44 20 24 1012.4 1012.0 0.2
15/10:30pm 25.8 23.3 21.7 78 2.7 ESE 37 43 20 23 1012.3 1011.9 0.2
15/10:00pm 25.9 23.3 22.2 80 2.5 ESE 39 46 21 25 1012.2 1011.8 0.2
15/09:30pm 25.9 23.0 21.6 77 2.9 ESE 39 46 21 25 1012.1 1011.7 0.2
15/09:00pm 25.8 22.7 21.9 79 2.6 ESE 41 48 22 26 1012.0 1011.6 0.2
15/08:30pm 26.0 23.4 22.1 79 2.6 E 39 48 21 26 1011.9 1011.5 0.2
15/08:00pm 26.0 23.6 21.9 78 2.7 ESE 37 44 20 24 1011.8 1011.4 0.2
15/07:30pm 25.9 23.6 21.3 76 3.1 ESE 35 43 19 23 1011.8 1011.4 0.2

Other Formats:

Comma delimited format used in spreadsheet applications
http://www.bom.gov.au/fwo/IDQ60801/IDQ60801.94368.axf

JavaScript Object Notation format (JSON) in row-major order
http://www.bom.gov.au/fwo/IDQ60801/IDQ60801.94368.json